createdAt,value
2022-12-29T00:01:19.728Z,2.28
2022-12-29T00:03:49.157Z,2.47
2022-12-29T00:06:15.581Z,2.33
2022-12-29T00:08:41.972Z,2.00
2022-12-29T00:11:12.433Z,2.20
2022-12-29T00:13:57.298Z,1.95
2022-12-29T00:16:23.619Z,2.22
2022-12-29T00:18:50.749Z,2.40
2022-12-29T00:21:36.829Z,1.92
2022-12-29T00:24:29.207Z,2.30
2022-12-29T00:27:23.267Z,2.20
2022-12-29T00:30:08.497Z,1.95
2022-12-29T00:32:53.323Z,1.88
2022-12-29T00:35:30.110Z,1.90
2022-12-29T00:38:16.590Z,1.90
2022-12-29T00:41:01.412Z,2.20
2022-12-29T00:43:46.109Z,1.92
2022-12-29T00:46:19.402Z,1.88
2022-12-29T00:49:04.676Z,1.50
2022-12-29T00:51:31.099Z,1.95
2022-12-29T00:53:57.371Z,2.17
2022-12-29T00:56:23.676Z,1.60
2022-12-29T00:58:49.963Z,2.28
2022-12-29T01:01:16.273Z,1.48
2022-12-29T01:03:44.312Z,1.40
2022-12-29T01:06:11.321Z,1.33
2022-12-29T01:11:05.468Z,1.50
2022-12-29T01:13:31.991Z,1.77
2022-12-29T01:15:58.539Z,1.40
2022-12-29T01:18:25.271Z,1.25
2022-12-29T01:20:51.886Z,1.73
2022-12-29T01:23:18.216Z,1.42
2022-12-29T01:25:44.477Z,1.30
2022-12-29T01:28:10.737Z,1.95
2022-12-29T01:30:36.966Z,1.27
2022-12-29T01:33:03.236Z,1.35
2022-12-29T01:35:29.535Z,1.65
2022-12-29T01:37:55.807Z,1.08
2022-12-29T01:40:22.031Z,1.45
2022-12-29T01:42:48.386Z,1.10
2022-12-29T01:45:15.974Z,1.40
2022-12-29T01:47:44.183Z,1.50
2022-12-29T01:50:12.722Z,1.80
2022-12-29T01:52:42.227Z,1.48
2022-12-29T01:55:09.462Z,1.48
2022-12-29T01:57:38.295Z,1.38
2022-12-29T02:00:06.584Z,1.30
2022-12-29T02:02:33.642Z,1.33
2022-12-29T02:05:04.704Z,1.30
2022-12-29T02:07:32.136Z,1.70
2022-12-29T02:09:58.972Z,1.35
2022-12-29T02:12:25.816Z,1.27
2022-12-29T02:14:54.443Z,2.30
2022-12-29T02:17:39.660Z,1.50
2022-12-29T02:20:15.068Z,2.15
2022-12-29T02:23:00.048Z,1.40
2022-12-29T02:26:01.608Z,1.17
2022-12-29T02:28:33.768Z,1.40
2022-12-29T02:31:06.163Z,1.38
2022-12-29T02:33:32.371Z,1.38
2022-12-29T02:36:20.415Z,2.00
2022-12-29T02:38:49.655Z,1.52
2022-12-29T02:41:20.029Z,1.13
2022-12-29T02:44:00.191Z,1.25
2022-12-29T02:46:32.939Z,1.65
2022-12-29T02:49:14.988Z,1.08
2022-12-29T02:52:02.156Z,1.45
2022-12-29T02:54:43.701Z,1.93
2022-12-29T02:57:30.225Z,1.02
2022-12-29T02:59:59.165Z,1.17
2022-12-29T03:02:31.063Z,1.17
2022-12-29T03:04:57.374Z,1.30
2022-12-29T03:07:42.292Z,1.15
2022-12-29T03:10:27.244Z,1.30
2022-12-29T03:13:24.193Z,1.38
2022-12-29T03:16:02.138Z,1.90
2022-12-29T03:18:43.822Z,1.30
2022-12-29T03:21:12.737Z,1.73
2022-12-29T03:23:40.179Z,1.30
2022-12-29T03:26:09.187Z,1.30
2022-12-29T03:28:37.917Z,2.05
2022-12-29T03:31:05.243Z,1.50
2022-12-29T03:33:32.128Z,1.40
2022-12-29T03:36:00.532Z,1.15
2022-12-29T03:38:38.886Z,1.10
2022-12-29T03:41:08.752Z,1.42
2022-12-29T03:43:35.354Z,1.58
2022-12-29T03:46:01.613Z,2.60
2022-12-29T03:48:27.871Z,1.83
2022-12-29T03:50:54.195Z,2.17
2022-12-29T03:53:20.490Z,1.63
2022-12-29T03:55:46.718Z,1.25
2022-12-29T03:58:12.932Z,1.20
2022-12-29T04:00:39.172Z,1.20
2022-12-29T04:03:05.452Z,1.00
2022-12-29T04:05:32.140Z,1.30
2022-12-29T04:07:59.154Z,1.05
2022-12-29T04:10:25.390Z,1.67
2022-12-29T04:12:51.623Z,1.00
2022-12-29T04:15:17.847Z,1.42
2022-12-29T04:17:44.659Z,1.15
2022-12-29T04:20:29.659Z,0.95
2022-12-29T04:25:54.377Z,0.90
2022-12-29T04:28:20.608Z,1.10
2022-12-29T04:30:47.565Z,0.93
2022-12-29T04:35:40.120Z,1.15
2022-12-29T04:38:06.363Z,1.40
2022-12-29T04:40:32.557Z,0.88
2022-12-29T04:42:58.867Z,1.05
2022-12-29T04:45:25.174Z,1.30
2022-12-29T04:47:51.456Z,1.42
2022-12-29T04:50:17.666Z,0.93
2022-12-29T04:52:44.233Z,1.30
2022-12-29T04:55:10.545Z,1.20
2022-12-29T04:57:36.783Z,1.10
2022-12-29T05:00:03.873Z,1.15
2022-12-29T05:02:30.347Z,1.85
2022-12-29T05:04:56.741Z,1.20
2022-12-29T05:07:22.976Z,1.02
2022-12-29T05:09:49.364Z,1.08
2022-12-29T05:12:15.614Z,1.20
2022-12-29T05:14:44.125Z,1.35
2022-12-29T05:17:10.353Z,1.77
2022-12-29T05:19:36.627Z,1.00
2022-12-29T05:22:02.883Z,1.30
2022-12-29T05:24:29.108Z,1.40
2022-12-29T05:26:55.395Z,1.15
2022-12-29T05:29:21.653Z,1.30
2022-12-29T05:31:47.899Z,1.80
2022-12-29T05:34:14.229Z,2.08
2022-12-29T05:36:40.894Z,1.90
2022-12-29T05:39:08.571Z,1.77
2022-12-29T05:41:35.145Z,1.60
2022-12-29T05:44:01.781Z,1.50
2022-12-29T05:46:28.072Z,2.22
2022-12-29T05:48:54.290Z,1.42
2022-12-29T05:51:20.523Z,1.33
2022-12-29T05:53:46.802Z,1.20
2022-12-29T05:56:13.059Z,1.30
2022-12-29T05:58:39.278Z,1.60
2022-12-29T06:01:05.592Z,1.52
2022-12-29T06:03:31.993Z,1.92
2022-12-29T06:05:58.304Z,1.75
2022-12-29T06:08:24.563Z,1.55
2022-12-29T06:10:50.845Z,1.55
2022-12-29T06:13:17.204Z,1.58
2022-12-29T06:15:43.665Z,2.00
2022-12-29T06:18:13.751Z,1.70
2022-12-29T06:20:45.748Z,1.30
2022-12-29T06:23:14.219Z,1.48
2022-12-29T06:25:40.563Z,1.20
2022-12-29T06:28:06.810Z,1.23
2022-12-29T06:30:33.609Z,1.80
2022-12-29T06:33:00.489Z,1.70
2022-12-29T06:35:26.736Z,1.50
2022-12-29T06:37:52.963Z,1.45
2022-12-29T06:40:19.218Z,1.55
2022-12-29T06:42:45.466Z,1.77
2022-12-29T06:45:11.682Z,1.50
2022-12-29T06:47:37.896Z,1.77
2022-12-29T06:50:04.266Z,1.40
2022-12-29T06:52:30.533Z,1.83
2022-12-29T06:54:56.744Z,2.42
2022-12-29T06:57:23.004Z,1.75
2022-12-29T06:59:49.217Z,1.95
2022-12-29T07:02:17.627Z,2.25
2022-12-29T07:04:43.963Z,2.72
2022-12-29T07:07:10.216Z,1.67
2022-12-29T07:09:36.441Z,1.92
2022-12-29T07:12:02.707Z,1.50
2022-12-29T07:14:28.912Z,1.90
2022-12-29T07:16:55.310Z,1.85
2022-12-29T07:19:21.615Z,2.05
2022-12-29T07:21:47.892Z,2.40
2022-12-29T07:24:14.161Z,2.35
2022-12-29T07:26:40.364Z,2.28
2022-12-29T07:29:06.641Z,2.30
2022-12-29T07:31:32.911Z,1.67
2022-12-29T07:33:59.143Z,1.83
2022-12-29T07:36:29.314Z,2.38
2022-12-29T07:38:58.707Z,2.30
2022-12-29T07:41:24.926Z,2.28
2022-12-29T07:43:51.145Z,2.63
2022-12-29T07:46:56.437Z,1.92
2022-12-29T07:49:03.598Z,1.73
2022-12-29T07:51:29.868Z,4.80
2022-12-29T07:53:56.111Z,2.42
2022-12-29T07:56:22.298Z,1.80
2022-12-29T07:58:48.501Z,2.30
2022-12-29T08:01:14.760Z,1.80
2022-12-29T08:03:42.230Z,1.80
2022-12-29T08:06:10.380Z,2.20
2022-12-29T08:08:36.632Z,1.80
2022-12-29T08:11:02.887Z,1.92
2022-12-29T08:13:29.089Z,1.83
2022-12-29T08:15:55.409Z,2.25
2022-12-29T08:18:21.685Z,2.75
2022-12-29T08:20:51.201Z,2.42
2022-12-29T08:23:21.715Z,2.25
2022-12-29T08:25:48.174Z,2.45
2022-12-29T08:28:14.443Z,2.40
2022-12-29T08:30:40.760Z,1.92
2022-12-29T08:33:07.044Z,2.22
2022-12-29T08:35:33.312Z,1.90
2022-12-29T08:37:59.887Z,1.85
2022-12-29T08:40:26.123Z,1.70
2022-12-29T08:42:52.329Z,2.22
2022-12-29T08:45:18.542Z,1.98
2022-12-29T08:47:44.925Z,2.40
2022-12-29T08:50:11.162Z,3.08
2022-12-29T08:52:37.420Z,2.03
2022-12-29T08:55:03.782Z,2.50
2022-12-29T08:57:30.011Z,1.92
2022-12-29T08:59:56.258Z,2.40
2022-12-29T09:02:24.119Z,2.58
2022-12-29T09:04:52.086Z,1.90
2022-12-29T09:07:18.297Z,1.77
2022-12-29T09:09:44.520Z,2.00
2022-12-29T09:12:10.908Z,1.58
2022-12-29T09:14:37.110Z,1.83
2022-12-29T09:17:22.278Z,1.77
2022-12-29T09:19:48.527Z,2.40
2022-12-29T09:22:14.873Z,2.53
2022-12-29T09:24:41.117Z,2.50
2022-12-29T09:27:07.402Z,1.92
2022-12-29T09:29:33.605Z,1.80
2022-12-29T09:32:00.330Z,2.00
2022-12-29T09:34:26.531Z,2.13
2022-12-29T09:36:52.757Z,1.58
2022-12-29T09:39:18.976Z,1.33
2022-12-29T09:42:17.534Z,1.67
2022-12-29T09:44:57.394Z,1.88
2022-12-29T09:47:24.674Z,1.67
2022-12-29T09:49:55.536Z,1.75
2022-12-29T09:52:26.505Z,2.30
2022-12-29T09:55:02.365Z,1.85
2022-12-29T09:57:29.369Z,1.77
2022-12-29T09:59:58.084Z,2.03
2022-12-29T10:02:43.806Z,1.60
2022-12-29T10:05:28.858Z,1.70
2022-12-29T10:08:06.545Z,1.67
2022-12-29T10:10:41.242Z,2.38
2022-12-29T10:13:27.729Z,2.03
2022-12-29T10:16:00.230Z,2.00
2022-12-29T10:18:44.534Z,1.92
2022-12-29T10:21:22.922Z,1.98
2022-12-29T10:23:51.024Z,2.20
2022-12-29T10:26:19.010Z,1.70
2022-12-29T10:28:57.469Z,1.73
2022-12-29T10:31:24.718Z,1.70
2022-12-29T10:33:54.856Z,1.95
2022-12-29T10:36:29.781Z,1.58
2022-12-29T10:39:15.828Z,1.63
2022-12-29T10:41:47.401Z,1.90
2022-12-29T10:44:15.885Z,1.58
2022-12-29T10:46:42.827Z,1.83
2022-12-29T10:51:37.736Z,1.50
2022-12-29T10:54:06.793Z,1.70
2022-12-29T10:56:48.222Z,1.73
2022-12-29T10:59:24.972Z,1.20
2022-12-29T11:01:54.173Z,1.33
2022-12-29T11:04:34.952Z,1.40
2022-12-29T11:07:01.799Z,1.63
2022-12-29T11:12:25.152Z,2.42
2022-12-29T11:15:06.679Z,2.00
2022-12-29T11:17:43.545Z,3.00
2022-12-29T11:20:28.932Z,1.40
2022-12-29T11:22:55.357Z,3.45
2022-12-29T11:25:21.596Z,2.42
2022-12-29T11:28:17.404Z,2.30
2022-12-29T11:30:43.990Z,1.00
2022-12-29T11:33:10.583Z,1.25
2022-12-29T11:35:43.880Z,1.17
2022-12-29T11:38:20.945Z,1.15
2022-12-29T11:40:47.308Z,1.50
2022-12-29T11:43:34.509Z,1.33
2022-12-29T11:46:01.264Z,1.83
2022-12-29T11:48:30.007Z,2.03
2022-12-29T11:50:59.267Z,1.88
2022-12-29T11:53:31.548Z,2.38
2022-12-29T11:55:59.931Z,2.78
2022-12-29T11:58:33.537Z,3.53
2022-12-29T12:01:14.912Z,3.00
2022-12-29T12:03:45.618Z,4.97
2022-12-29T12:06:14.218Z,7.55
2022-12-29T12:08:44.882Z,5.00
2022-12-29T12:11:27.469Z,6.38
2022-12-29T12:14:00.519Z,2.55
2022-12-29T12:16:35.230Z,3.10
2022-12-29T12:19:10.521Z,3.30
2022-12-29T12:21:45.339Z,10.82
2022-12-29T12:24:21.296Z,12.02
2022-12-29T12:26:56.738Z,5.43
2022-12-29T12:29:45.927Z,2.88
2022-12-29T12:32:18.430Z,1.33
2022-12-29T12:34:46.217Z,2.28
2022-12-29T12:37:21.580Z,1.73
2022-12-29T12:40:03.243Z,1.20
2022-12-29T12:42:45.237Z,1.33
2022-12-29T12:45:34.844Z,1.40
2022-12-29T12:48:01.053Z,2.70
2022-12-29T12:50:39.779Z,11.18
2022-12-29T12:53:24.300Z,1.38
2022-12-29T12:55:59.299Z,1.40
2022-12-29T12:58:37.770Z,3.05
2022-12-29T13:01:04.043Z,3.13
2022-12-29T13:03:40.731Z,2.03
2022-12-29T13:06:22.084Z,2.17
2022-12-29T13:08:53.140Z,2.00
2022-12-29T13:11:28.264Z,1.30
2022-12-29T13:14:00.461Z,1.65
2022-12-29T13:16:32.987Z,1.48
2022-12-29T13:18:59.183Z,2.15
2022-12-29T13:21:40.631Z,4.13
2022-12-29T13:24:09.802Z,1.48
2022-12-29T13:26:39.298Z,1.58
2022-12-29T13:29:12.946Z,1.50
2022-12-29T13:31:54.505Z,1.88
2022-12-29T13:34:33.079Z,1.88
2022-12-29T13:37:12.030Z,2.38
2022-12-29T13:39:39.675Z,3.38
2022-12-29T13:42:06.271Z,2.17
2022-12-29T13:44:36.879Z,4.55
2022-12-29T13:47:07.851Z,1.77
2022-12-29T13:49:34.429Z,2.65
2022-12-29T13:52:10.689Z,6.18
2022-12-29T13:54:55.449Z,4.95
2022-12-29T13:57:27.955Z,3.00
2022-12-29T14:00:05.838Z,2.30
2022-12-29T14:02:38.088Z,2.80
2022-12-29T14:05:06.851Z,3.28
2022-12-29T14:07:39.539Z,5.70
2022-12-29T14:10:06.253Z,11.10
2022-12-29T14:12:35.710Z,6.97
2022-12-29T14:15:16.385Z,9.60
2022-12-29T14:17:42.985Z,5.53
2022-12-29T14:20:23.000Z,5.30
2022-12-29T14:22:59.965Z,6.72
2022-12-29T14:25:46.130Z,16.58
2022-12-29T14:28:24.091Z,10.40
2022-12-29T14:30:51.683Z,15.23
2022-12-29T14:33:18.067Z,10.95
2022-12-29T14:35:46.744Z,14.52
2022-12-29T14:38:21.252Z,7.43
2022-12-29T14:40:48.425Z,2.67
2022-12-29T14:43:26.178Z,0.90
2022-12-29T14:45:54.363Z,0.75
2022-12-29T14:48:32.208Z,0.77
2022-12-29T14:50:58.565Z,0.98
2022-12-29T14:53:43.597Z,1.20
2022-12-29T14:56:10.985Z,0.98
2022-12-29T14:58:51.965Z,0.70
2022-12-29T15:01:25.632Z,1.10
2022-12-29T15:03:54.200Z,0.98
2022-12-29T15:06:23.144Z,1.25
2022-12-29T15:09:00.272Z,1.33
2022-12-29T15:11:38.548Z,1.42
2022-12-29T15:14:24.748Z,1.95
2022-12-29T15:16:51.023Z,1.75
2022-12-29T15:19:23.996Z,2.30
2022-12-29T15:21:50.599Z,1.98
2022-12-29T15:24:17.037Z,2.17
2022-12-29T15:26:45.076Z,2.67
2022-12-29T15:29:30.310Z,3.90
2022-12-29T15:31:57.343Z,4.18
2022-12-29T15:34:23.629Z,4.03
2022-12-29T15:36:51.007Z,3.53
2022-12-29T15:39:21.022Z,4.03
2022-12-29T15:42:00.433Z,4.72
2022-12-29T15:44:33.210Z,5.35
2022-12-29T15:47:03.098Z,7.05
2022-12-29T15:49:32.501Z,4.85
2022-12-29T15:51:59.130Z,7.97
2022-12-29T15:54:27.201Z,6.60
2022-12-29T15:56:53.557Z,7.32
2022-12-29T15:59:25.655Z,14.80
2022-12-29T16:01:52.581Z,21.33
2022-12-29T16:04:19.380Z,17.60
2022-12-29T16:06:54.540Z,7.68
2022-12-29T16:09:30.024Z,9.32
2022-12-29T16:11:58.139Z,5.95
2022-12-29T16:14:28.406Z,2.63
2022-12-29T16:16:57.465Z,1.60
2022-12-29T16:19:35.562Z,1.40
2022-12-29T16:22:03.310Z,1.60
2022-12-29T16:24:33.463Z,2.33
2022-12-29T16:27:05.637Z,4.15
2022-12-29T16:29:32.039Z,4.57
2022-12-29T16:32:03.985Z,11.32
2022-12-29T16:34:32.691Z,10.13
2022-12-29T16:36:58.946Z,6.40
2022-12-29T16:39:29.820Z,5.60
2022-12-29T16:41:56.499Z,6.32
2022-12-29T16:44:22.831Z,4.30
2022-12-29T16:47:00.684Z,4.07
2022-12-29T16:49:27.781Z,4.80
2022-12-29T16:51:55.694Z,4.13
2022-12-29T16:54:24.086Z,5.13
2022-12-29T16:56:50.488Z,3.13
2022-12-29T16:59:32.902Z,2.70
2022-12-29T17:02:00.384Z,10.43
2022-12-29T17:04:26.716Z,5.60
2022-12-29T17:06:52.981Z,3.88
2022-12-29T17:09:23.426Z,3.60
2022-12-29T17:12:05.300Z,4.45
2022-12-29T17:14:39.831Z,4.63
2022-12-29T17:17:09.959Z,3.45
2022-12-29T17:19:38.229Z,8.15
2022-12-29T17:22:10.540Z,7.20
2022-12-29T17:24:37.115Z,3.00
2022-12-29T17:27:04.130Z,3.65
2022-12-29T17:31:56.697Z,3.10
2022-12-29T17:34:22.996Z,2.50
2022-12-29T17:36:49.209Z,3.33
2022-12-29T17:39:15.434Z,3.40
2022-12-29T17:41:41.800Z,3.30
2022-12-29T17:44:14.585Z,4.10
2022-12-29T17:46:40.869Z,3.95
2022-12-29T17:49:10.878Z,4.00
2022-12-29T17:51:37.394Z,4.10
2022-12-29T17:54:03.846Z,6.75
2022-12-29T17:56:30.719Z,9.20
2022-12-29T18:01:31.046Z,4.00
2022-12-29T18:04:00.271Z,2.50
2022-12-29T18:06:26.528Z,6.45
2022-12-29T18:08:52.738Z,19.50
2022-12-29T18:11:21.616Z,8.15
2022-12-29T18:13:47.828Z,3.20
2022-12-29T18:16:14.666Z,4.40
2022-12-29T18:21:14.032Z,4.05
2022-12-29T18:23:40.233Z,3.55
2022-12-29T18:26:11.808Z,3.65
2022-12-29T18:28:38.057Z,4.22
2022-12-29T18:31:10.252Z,3.90
2022-12-29T18:33:36.529Z,3.08
2022-12-29T18:36:04.028Z,3.75
2022-12-29T18:38:30.651Z,3.70
2022-12-29T18:40:57.854Z,7.25
2022-12-29T18:43:24.349Z,5.35
2022-12-29T18:45:50.588Z,4.00
2022-12-29T18:48:17.910Z,3.70
2022-12-29T18:50:44.600Z,3.20
2022-12-29T18:53:17.611Z,3.30
2022-12-29T18:55:43.909Z,3.13
2022-12-29T18:58:10.136Z,3.00
2022-12-29T19:00:36.414Z,2.15
2022-12-29T19:03:02.763Z,2.00
2022-12-29T19:05:36.141Z,2.28
2022-12-29T19:08:02.614Z,2.90
2022-12-29T19:10:29.054Z,7.18
2022-12-29T19:12:55.378Z,3.72
2022-12-29T19:15:21.598Z,2.42
2022-12-29T19:18:01.950Z,2.50
2022-12-29T19:20:37.953Z,8.05
2022-12-29T19:23:05.846Z,6.72
2022-12-29T19:25:32.615Z,6.10
2022-12-29T19:28:00.104Z,3.75
2022-12-29T19:30:26.659Z,5.22
2022-12-29T19:32:53.895Z,4.70
2022-12-29T19:35:21.076Z,2.90
2022-12-29T19:37:47.943Z,3.42
2022-12-29T19:40:16.360Z,2.47
2022-12-29T19:42:42.811Z,3.67
2022-12-29T19:45:09.508Z,2.45
2022-12-29T19:47:35.855Z,2.22
2022-12-29T19:50:03.125Z,2.80
2022-12-29T19:52:29.632Z,3.10
2022-12-29T19:54:55.844Z,2.58
2022-12-29T19:57:22.270Z,2.10
2022-12-29T19:59:48.778Z,1.65
2022-12-29T20:02:22.175Z,3.00
2022-12-29T20:04:48.772Z,2.63
2022-12-29T20:07:17.743Z,2.22
2022-12-29T20:09:44.498Z,2.55
2022-12-29T20:12:11.275Z,3.63
2022-12-29T20:14:37.888Z,4.25
2022-12-29T20:17:12.325Z,4.28
2022-12-29T20:19:39.485Z,2.30
2022-12-29T20:22:06.654Z,2.65
2022-12-29T20:24:33.393Z,2.47
2022-12-29T20:26:59.615Z,2.92
2022-12-29T20:29:25.878Z,2.72
2022-12-29T20:31:52.317Z,2.90
2022-12-29T20:34:18.925Z,2.78
2022-12-29T20:36:46.802Z,3.10
2022-12-29T20:39:17.650Z,3.45
2022-12-29T20:41:44.128Z,4.03
2022-12-29T20:44:10.501Z,3.05
2022-12-29T20:46:43.648Z,3.03
2022-12-29T20:49:10.646Z,3.00
2022-12-29T20:52:04.498Z,2.75
2022-12-29T20:54:23.565Z,2.47
2022-12-29T20:59:31.756Z,2.60
2022-12-29T21:01:58.447Z,2.05
2022-12-29T21:04:25.161Z,1.98
2022-12-29T21:06:51.444Z,2.08
2022-12-29T21:09:17.720Z,1.95
2022-12-29T21:11:43.969Z,2.17
2022-12-29T21:14:10.275Z,2.25
2022-12-29T21:16:36.569Z,2.58
2022-12-29T21:19:02.953Z,2.10
2022-12-29T21:21:29.230Z,2.22
2022-12-29T21:23:55.850Z,2.00
2022-12-29T21:26:23.044Z,2.13
2022-12-29T21:28:49.824Z,2.40
2022-12-29T21:31:24.327Z,2.60
2022-12-29T21:33:51.023Z,2.95
2022-12-29T21:36:17.236Z,2.42
2022-12-29T21:38:43.521Z,2.50
2022-12-29T21:41:11.391Z,2.78
2022-12-29T21:43:38.116Z,2.72
2022-12-29T21:46:05.232Z,2.42
2022-12-29T21:48:31.833Z,2.58
2022-12-29T21:51:31.519Z,2.63
2022-12-29T21:54:17.677Z,2.10
2022-12-29T21:56:45.634Z,2.08
2022-12-29T21:59:31.032Z,1.80
2022-12-29T22:02:16.529Z,1.88
2022-12-29T22:05:01.729Z,2.70
2022-12-29T22:07:46.535Z,2.38
2022-12-29T22:10:31.852Z,1.70
2022-12-29T22:13:03.359Z,1.80
2022-12-29T22:15:31.577Z,1.70
2022-12-29T22:17:58.137Z,1.67
2022-12-29T22:20:31.644Z,1.77
2022-12-29T22:22:57.880Z,1.63
2022-12-29T22:25:24.171Z,1.73
2022-12-29T22:27:54.267Z,1.77
2022-12-29T22:30:25.170Z,2.15
2022-12-29T22:32:51.572Z,2.40
2022-12-29T22:35:17.859Z,1.80
2022-12-29T22:37:44.141Z,2.22
2022-12-29T22:40:11.136Z,1.90
2022-12-29T22:45:03.861Z,1.90
2022-12-29T22:47:30.147Z,1.90
2022-12-29T22:49:56.393Z,2.10
2022-12-29T22:52:22.594Z,3.20
2022-12-29T22:54:48.820Z,1.35
2022-12-29T22:57:15.048Z,1.58
2022-12-29T22:59:41.265Z,2.13
2022-12-29T23:02:07.659Z,2.58
2022-12-29T23:07:20.679Z,2.13
2022-12-29T23:09:47.072Z,2.10
2022-12-29T23:12:13.303Z,2.50
2022-12-29T23:14:39.556Z,2.20
2022-12-29T23:17:05.803Z,1.30
2022-12-29T23:19:32.032Z,1.73
2022-12-29T23:21:58.236Z,1.90
2022-12-29T23:24:24.905Z,1.45
2022-12-29T23:26:51.265Z,2.63
2022-12-29T23:29:18.540Z,2.22
2022-12-29T23:31:45.620Z,1.48
2022-12-29T23:34:12.708Z,1.80
2022-12-29T23:36:39.408Z,1.30
2022-12-29T23:39:05.835Z,1.73
2022-12-29T23:41:32.064Z,1.95
2022-12-29T23:43:58.484Z,1.70
2022-12-29T23:46:25.704Z,2.63
2022-12-29T23:48:52.045Z,2.42
2022-12-29T23:51:18.389Z,1.75
2022-12-29T23:53:47.784Z,1.95
2022-12-29T23:56:16.440Z,2.20
2022-12-29T23:58:42.712Z,1.88
